createdAt,value
2023-04-12T00:01:17.814Z,1.98
2023-04-12T00:04:22.843Z,2.20
2023-04-12T00:07:25.325Z,2.50
2023-04-12T00:10:30.190Z,2.42
2023-04-12T00:13:32.460Z,2.50
2023-04-12T00:16:36.223Z,2.70
2023-04-12T00:19:42.017Z,2.37
2023-04-12T00:22:45.045Z,2.00
2023-04-12T00:25:47.549Z,2.72
2023-04-12T00:28:49.794Z,2.35
2023-04-12T00:31:52.056Z,2.55
2023-04-12T00:34:54.274Z,3.20
2023-04-12T00:37:56.618Z,2.70
2023-04-12T00:40:58.889Z,3.47
2023-04-12T00:44:01.259Z,3.15
2023-04-12T00:47:08.005Z,3.10
2023-04-12T00:50:11.097Z,3.17
2023-04-12T00:53:14.711Z,3.30
2023-04-12T00:56:17.186Z,3.75
2023-04-12T00:59:19.545Z,3.70
2023-04-12T01:02:23.857Z,3.60
2023-04-12T01:05:27.198Z,4.17
2023-04-12T01:08:45.887Z,4.22
2023-04-12T01:12:12.050Z,3.42
2023-04-12T01:15:17.661Z,4.55
2023-04-12T01:18:23.829Z,4.75
2023-04-12T01:21:54.118Z,4.87
2023-04-12T01:25:16.413Z,4.68
2023-04-12T01:28:23.976Z,3.95
2023-04-12T01:31:29.222Z,4.28
2023-04-12T01:34:33.473Z,3.67
2023-04-12T01:37:36.627Z,4.70
2023-04-12T01:40:42.024Z,4.70
2023-04-12T01:43:46.121Z,5.10
2023-04-12T01:46:48.939Z,4.88
2023-04-12T01:50:04.093Z,4.28
2023-04-12T01:53:21.049Z,4.90
2023-04-12T01:56:26.641Z,5.00
2023-04-12T01:59:34.879Z,4.75
2023-04-12T02:02:40.125Z,4.20
2023-04-12T02:05:43.090Z,4.35
2023-04-12T02:08:45.724Z,3.67
2023-04-12T02:11:51.254Z,3.65
2023-04-12T02:14:53.522Z,4.10
2023-04-12T02:17:56.326Z,4.68
2023-04-12T02:20:58.586Z,5.00
2023-04-12T02:24:00.975Z,4.50
2023-04-12T02:27:03.814Z,4.97
2023-04-12T02:30:07.114Z,4.80
2023-04-12T02:33:11.998Z,4.07
2023-04-12T02:36:15.066Z,4.65
2023-04-12T02:39:18.902Z,4.23
2023-04-12T02:42:23.691Z,4.80
2023-04-12T02:45:26.106Z,4.40
2023-04-12T02:48:29.244Z,4.43
2023-04-12T02:51:31.719Z,4.03
2023-04-12T02:54:34.155Z,4.20
2023-04-12T02:57:36.979Z,4.07
2023-04-12T03:00:43.837Z,5.05
2023-04-12T03:03:47.810Z,4.80
2023-04-12T03:07:07.089Z,4.30
2023-04-12T03:10:18.199Z,4.17
2023-04-12T03:13:26.727Z,4.25
2023-04-12T03:16:30.351Z,4.82
2023-04-12T03:19:43.123Z,4.55
2023-04-12T03:22:46.159Z,8.13
2023-04-12T03:25:48.511Z,4.93
2023-04-12T03:29:11.327Z,4.50
2023-04-12T03:32:15.595Z,4.10
2023-04-12T03:35:20.875Z,4.65
2023-04-12T03:38:25.078Z,4.18
2023-04-12T03:41:28.846Z,4.40
2023-04-12T03:44:32.768Z,6.10
2023-04-12T03:47:39.007Z,4.80
2023-04-12T03:50:44.653Z,4.38
2023-04-12T03:53:56.247Z,4.72
2023-04-12T03:56:59.081Z,3.73
2023-04-12T04:00:08.863Z,4.00
2023-04-12T04:03:30.712Z,4.32
2023-04-12T04:06:41.570Z,4.47
2023-04-12T04:09:44.061Z,3.97
2023-04-12T04:12:47.276Z,4.30
2023-04-12T04:15:58.965Z,4.03
2023-04-12T04:19:03.045Z,4.15
2023-04-12T04:22:05.410Z,4.10
2023-04-12T04:25:08.557Z,3.75
2023-04-12T04:28:16.177Z,3.87
2023-04-12T04:31:19.330Z,4.38
2023-04-12T04:34:25.617Z,4.80
2023-04-12T04:37:37.787Z,4.45
2023-04-12T04:40:41.102Z,4.55
2023-04-12T04:43:46.890Z,4.97
2023-04-12T04:46:51.673Z,4.10
2023-04-12T04:49:53.935Z,4.50
2023-04-12T04:52:59.548Z,6.07
2023-04-12T04:56:03.152Z,4.85
2023-04-12T04:59:09.397Z,5.83
2023-04-12T05:02:11.894Z,4.35
2023-04-12T05:05:14.393Z,3.40
2023-04-12T05:08:17.768Z,4.35
2023-04-12T05:11:21.321Z,3.90
2023-04-12T05:14:24.240Z,2.53
2023-04-12T05:17:26.610Z,4.05
2023-04-12T05:20:29.206Z,3.75
2023-04-12T05:23:37.337Z,4.30
2023-04-12T05:26:40.148Z,3.65
2023-04-12T05:29:48.732Z,3.33
2023-04-12T05:32:54.031Z,5.65
2023-04-12T05:35:57.028Z,3.63
2023-04-12T05:38:59.376Z,3.97
2023-04-12T05:42:02.235Z,3.83
2023-04-12T05:45:06.974Z,3.40
2023-04-12T05:48:11.518Z,3.95
2023-04-12T05:51:13.982Z,4.40
2023-04-12T05:54:31.330Z,3.75
2023-04-12T05:57:37.485Z,3.90
2023-04-12T06:04:04.351Z,3.88
2023-04-12T06:07:07.885Z,4.13
2023-04-12T06:10:12.062Z,3.38
2023-04-12T06:13:15.008Z,3.40
2023-04-12T06:16:20.033Z,2.87
2023-04-12T06:19:22.864Z,2.78
2023-04-12T06:22:26.271Z,3.38
2023-04-12T06:25:28.993Z,3.42
2023-04-12T06:28:33.245Z,3.10
2023-04-12T06:31:36.715Z,3.17
2023-04-12T06:34:42.322Z,3.35
2023-04-12T06:37:58.670Z,3.45
2023-04-12T06:41:48.204Z,3.00
2023-04-12T06:45:08.169Z,3.30
2023-04-12T06:48:11.018Z,3.53
2023-04-12T06:52:14.799Z,4.00
2023-04-12T06:55:17.339Z,7.35
2023-04-12T07:02:09.261Z,6.38
2023-04-12T07:05:11.599Z,20.67
2023-04-12T07:08:14.384Z,10.43
2023-04-12T07:11:21.496Z,5.30
2023-04-12T07:14:24.624Z,5.05
2023-04-12T07:17:29.806Z,3.90
2023-04-12T07:20:32.301Z,4.30
2023-04-12T07:23:34.785Z,3.30
2023-04-12T07:26:40.825Z,4.25
2023-04-12T07:29:43.163Z,3.63
2023-04-12T07:32:46.134Z,3.40
2023-04-12T07:35:50.883Z,3.50
2023-04-12T07:38:55.855Z,3.80
2023-04-12T07:41:58.539Z,3.40
2023-04-12T07:45:01.178Z,3.88
2023-04-12T07:48:04.182Z,4.38
2023-04-12T07:51:06.584Z,4.00
2023-04-12T07:54:09.705Z,3.60
2023-04-12T07:57:12.130Z,3.55
2023-04-12T08:00:14.965Z,3.72
2023-04-12T08:03:19.176Z,3.20
2023-04-12T08:06:21.661Z,3.37
2023-04-12T08:09:24.946Z,3.80
2023-04-12T08:12:27.353Z,3.33
2023-04-12T08:15:29.772Z,2.30
2023-04-12T08:18:32.090Z,3.03
2023-04-12T08:21:35.019Z,3.20
2023-04-12T08:24:37.335Z,3.08
2023-04-12T08:27:42.482Z,3.35
2023-04-12T08:30:47.537Z,3.15
2023-04-12T08:33:51.239Z,3.25
2023-04-12T08:36:53.587Z,3.27
2023-04-12T08:39:58.899Z,3.08
2023-04-12T08:43:03.936Z,3.00
2023-04-12T08:46:08.105Z,3.30
2023-04-12T08:49:13.892Z,2.90
2023-04-12T08:52:16.888Z,2.20
2023-04-12T08:55:19.177Z,7.03
2023-04-12T08:58:22.490Z,12.38
2023-04-12T09:01:25.311Z,4.85
2023-04-12T09:08:18.508Z,10.47
2023-04-12T09:11:26.182Z,3.35
2023-04-12T09:14:28.663Z,3.20
2023-04-12T09:17:32.296Z,2.72
2023-04-12T09:20:35.998Z,2.72
2023-04-12T09:23:40.154Z,2.70
2023-04-12T09:26:42.487Z,2.38
2023-04-12T09:29:52.184Z,2.78
2023-04-12T09:32:55.844Z,2.75
2023-04-12T09:36:05.251Z,3.20
2023-04-12T09:39:16.071Z,2.33
2023-04-12T09:42:31.785Z,2.80
2023-04-12T09:46:00.159Z,2.78
2023-04-12T09:49:03.642Z,2.70
2023-04-12T09:52:11.054Z,2.70
2023-04-12T09:55:14.106Z,2.30
2023-04-12T09:58:20.679Z,2.28
2023-04-12T10:01:26.218Z,2.33
2023-04-12T10:04:30.214Z,2.38
2023-04-12T10:07:32.801Z,2.15
2023-04-12T10:10:35.546Z,2.87
2023-04-12T10:13:45.410Z,2.50
2023-04-12T10:16:49.154Z,3.05
2023-04-12T10:19:52.717Z,4.10
2023-04-12T10:22:56.170Z,2.85
2023-04-12T10:26:04.081Z,2.80
2023-04-12T10:29:33.759Z,2.63
2023-04-12T10:32:36.501Z,2.60
2023-04-12T10:35:57.115Z,2.65
2023-04-12T10:39:10.561Z,3.10
2023-04-12T10:42:19.536Z,2.90
2023-04-12T10:45:34.217Z,2.83
2023-04-12T10:48:53.044Z,2.67
2023-04-12T10:52:04.290Z,2.40
2023-04-12T10:55:36.651Z,2.47
2023-04-12T10:58:48.462Z,2.10
2023-04-12T11:02:11.877Z,2.50
2023-04-12T11:05:21.295Z,2.65
2023-04-12T11:08:43.926Z,2.38
2023-04-12T11:12:08.197Z,2.10
2023-04-12T11:15:13.747Z,2.07
2023-04-12T11:18:29.372Z,2.65
2023-04-12T11:21:31.914Z,2.45
2023-04-12T11:24:37.790Z,2.45
2023-04-12T11:27:40.130Z,2.40
2023-04-12T11:30:56.425Z,2.43
2023-04-12T11:34:00.366Z,2.30
2023-04-12T11:37:09.989Z,2.05
2023-04-12T11:40:12.505Z,2.08
2023-04-12T11:43:22.308Z,4.93
2023-04-12T11:46:25.389Z,3.00
2023-04-12T11:49:30.759Z,2.30
2023-04-12T11:52:33.806Z,1.73
2023-04-12T11:55:42.777Z,2.47
2023-04-12T11:58:48.000Z,2.50
2023-04-12T12:01:56.503Z,2.17
2023-04-12T12:05:03.026Z,1.95
2023-04-12T12:08:11.944Z,6.88
2023-04-12T12:11:14.338Z,4.45
2023-04-12T12:14:21.171Z,2.55
2023-04-12T12:17:23.702Z,1.93
2023-04-12T12:20:27.439Z,1.85
2023-04-12T12:23:31.099Z,3.03
2023-04-12T12:26:33.994Z,1.83
2023-04-12T12:29:37.903Z,1.50
2023-04-12T12:32:40.304Z,2.10
2023-04-12T12:35:42.735Z,1.92
2023-04-12T12:38:45.326Z,1.90
2023-04-12T12:41:55.697Z,1.85
2023-04-12T12:44:57.991Z,1.90
2023-04-12T12:48:03.120Z,1.97
2023-04-12T12:51:05.990Z,2.72
2023-04-12T12:54:08.675Z,2.10
2023-04-12T12:57:11.087Z,1.65
2023-04-12T13:00:15.432Z,2.28
2023-04-12T13:03:18.016Z,2.30
2023-04-12T13:06:20.571Z,2.47
2023-04-12T13:09:22.916Z,2.05
2023-04-12T13:12:25.579Z,1.75
2023-04-12T13:15:27.876Z,2.42
2023-04-12T13:18:30.161Z,1.80
2023-04-12T13:21:32.401Z,1.55
2023-04-12T13:24:38.103Z,2.15
2023-04-12T13:27:40.531Z,1.48
2023-04-12T13:30:42.926Z,1.73
2023-04-12T13:33:45.636Z,1.67
2023-04-12T13:36:49.642Z,1.50
2023-04-12T13:39:52.622Z,1.42
2023-04-12T13:42:55.040Z,1.45
2023-04-12T13:45:57.462Z,1.20
2023-04-12T13:49:00.078Z,1.57
2023-04-12T13:52:03.145Z,1.70
2023-04-12T13:55:08.448Z,1.40
2023-04-12T13:58:10.967Z,1.80
2023-04-12T14:01:13.665Z,1.50
2023-04-12T14:04:16.193Z,1.40
2023-04-12T14:07:18.899Z,1.50
2023-04-12T14:10:21.294Z,0.98
2023-04-12T14:13:24.131Z,1.80
2023-04-12T14:16:26.376Z,1.42
2023-04-12T14:19:28.997Z,1.67
2023-04-12T14:22:31.523Z,1.30
2023-04-12T14:25:37.063Z,1.42
2023-04-12T14:28:40.117Z,1.30
2023-04-12T14:31:42.529Z,1.40
2023-04-12T14:34:45.230Z,1.57
2023-04-12T14:37:52.469Z,1.30
2023-04-12T14:40:55.071Z,1.10
2023-04-12T14:43:59.347Z,1.40
2023-04-12T14:47:01.802Z,1.40
2023-04-12T14:50:04.395Z,0.90
2023-04-12T14:53:09.692Z,1.10
2023-04-12T14:56:24.599Z,0.70
2023-04-12T14:59:27.945Z,1.02
2023-04-12T15:02:30.372Z,1.27
2023-04-12T15:05:33.657Z,1.10
2023-04-12T15:08:41.742Z,0.82
2023-04-12T15:11:46.439Z,1.00
2023-04-12T15:14:52.359Z,1.50
2023-04-12T15:17:54.623Z,1.10
2023-04-12T15:21:00.358Z,1.20
2023-04-12T15:24:03.011Z,1.10
2023-04-12T15:27:06.654Z,1.20
2023-04-12T15:30:11.086Z,0.88
2023-04-12T15:33:13.540Z,1.10
2023-04-12T15:36:20.354Z,2.23
2023-04-12T15:39:22.799Z,2.50
2023-04-12T15:42:25.031Z,1.77
2023-04-12T15:45:28.115Z,1.10
2023-04-12T15:48:30.678Z,1.77
2023-04-12T15:51:33.368Z,1.40
2023-04-12T15:54:43.365Z,1.40
2023-04-12T15:57:47.088Z,1.27
2023-04-12T16:00:49.986Z,1.33
2023-04-12T16:03:53.463Z,1.42
2023-04-12T16:06:55.979Z,1.27
2023-04-12T16:09:58.221Z,1.27
2023-04-12T16:13:00.713Z,1.45
2023-04-12T16:16:03.701Z,1.40
2023-04-12T16:19:06.393Z,1.20
2023-04-12T16:22:08.773Z,1.20
2023-04-12T16:25:12.003Z,1.60
2023-04-12T16:28:17.694Z,1.33
2023-04-12T16:31:21.174Z,1.13
2023-04-12T16:34:23.847Z,1.30
2023-04-12T16:37:29.065Z,1.40
2023-04-12T16:40:31.784Z,1.40
2023-04-12T16:43:34.596Z,1.38
2023-04-12T16:46:37.817Z,1.40
2023-04-12T16:49:40.154Z,1.80
2023-04-12T16:52:42.732Z,1.30
2023-04-12T16:55:49.758Z,1.58
2023-04-12T16:58:52.243Z,1.60
2023-04-12T17:01:54.744Z,1.67
2023-04-12T17:04:57.468Z,2.30
2023-04-12T17:08:00.111Z,3.30
2023-04-12T17:11:04.050Z,3.03
2023-04-12T17:14:07.706Z,1.92
2023-04-12T17:17:10.544Z,1.90
2023-04-12T17:20:13.366Z,1.80
2023-04-12T17:23:16.174Z,2.07
2023-04-12T17:26:20.688Z,2.00
2023-04-12T17:29:23.189Z,1.70
2023-04-12T17:32:26.223Z,1.45
2023-04-12T17:35:29.038Z,1.85
2023-04-12T17:38:32.051Z,1.60
2023-04-12T17:41:34.405Z,1.98
2023-04-12T17:44:37.107Z,1.95
2023-04-12T17:47:43.318Z,2.03
2023-04-12T17:50:45.934Z,3.30
2023-04-12T17:53:50.288Z,2.80
2023-04-12T17:56:52.712Z,4.15
2023-04-12T17:59:55.041Z,3.88
2023-04-12T18:02:57.600Z,3.92
2023-04-12T18:06:00.820Z,3.55
2023-04-12T18:09:03.123Z,3.60
2023-04-12T18:12:05.997Z,3.38
2023-04-12T18:15:08.886Z,3.60
2023-04-12T18:18:11.574Z,3.97
2023-04-12T18:21:16.270Z,3.33
2023-04-12T18:24:18.575Z,3.50
2023-04-12T18:27:21.151Z,3.85
2023-04-12T18:30:23.432Z,3.97
2023-04-12T18:33:25.833Z,3.90
2023-04-12T18:36:28.105Z,3.60
2023-04-12T18:39:30.440Z,3.47
2023-04-12T18:42:32.929Z,3.20
2023-04-12T18:45:39.439Z,4.25
2023-04-12T18:48:42.283Z,4.10
2023-04-12T18:51:44.723Z,3.95
2023-04-12T18:54:47.066Z,3.80
2023-04-12T18:57:49.511Z,3.92
2023-04-12T19:00:51.769Z,5.60
2023-04-12T19:03:54.219Z,4.60
2023-04-12T19:06:57.074Z,4.07
2023-04-12T19:09:59.442Z,4.20
2023-04-12T19:13:02.214Z,10.30
2023-04-12T19:16:07.896Z,7.20
2023-04-12T19:19:10.606Z,6.63
2023-04-12T19:22:12.918Z,5.60
2023-04-12T19:25:16.364Z,6.00
2023-04-12T19:28:19.864Z,6.88
2023-04-12T19:31:23.640Z,6.90
2023-04-12T19:34:26.908Z,7.80
2023-04-12T19:37:34.171Z,7.70
2023-04-12T19:40:36.894Z,8.43
2023-04-12T19:43:39.168Z,6.80
2023-04-12T19:46:41.553Z,7.53
2023-04-12T19:49:43.962Z,11.10
2023-04-12T19:52:47.907Z,8.50
2023-04-12T19:55:50.424Z,7.33
2023-04-12T19:58:54.658Z,6.30
2023-04-12T20:01:58.258Z,6.35
2023-04-12T20:05:00.836Z,6.03
2023-04-12T20:08:03.340Z,5.72
2023-04-12T20:11:06.170Z,5.73
2023-04-12T20:14:09.004Z,5.25
2023-04-12T20:17:12.204Z,5.65
2023-04-12T20:20:15.433Z,5.15
2023-04-12T20:23:17.742Z,5.53
2023-04-12T20:26:23.091Z,6.50
2023-04-12T20:29:25.337Z,6.50
2023-04-12T20:32:27.723Z,6.95
2023-04-12T20:35:30.374Z,6.97
2023-04-12T20:38:34.426Z,7.05
2023-04-12T20:41:38.503Z,7.17
2023-04-12T20:44:40.780Z,7.93
2023-04-12T20:47:43.080Z,6.85
2023-04-12T20:50:46.599Z,7.25
2023-04-12T20:53:48.874Z,8.07
2023-04-12T20:56:51.192Z,8.10
2023-04-12T20:59:53.724Z,8.45
2023-04-12T21:02:56.675Z,8.65
2023-04-12T21:06:00.373Z,8.50
2023-04-12T21:09:05.962Z,8.85
2023-04-12T21:12:08.560Z,8.27
2023-04-12T21:15:12.152Z,8.50
2023-04-12T21:18:15.331Z,8.73
2023-04-12T21:21:20.204Z,8.23
2023-04-12T21:24:22.503Z,8.63
2023-04-12T21:27:25.250Z,8.53
2023-04-12T21:30:27.627Z,8.45
2023-04-12T21:33:30.304Z,8.27
2023-04-12T21:36:33.129Z,8.73
2023-04-12T21:39:35.427Z,8.77
2023-04-12T21:42:38.609Z,8.27
2023-04-12T21:45:41.052Z,8.40
2023-04-12T21:48:43.585Z,8.00
2023-04-12T21:51:47.072Z,7.80
2023-04-12T21:54:49.518Z,8.15
2023-04-12T21:57:52.944Z,8.00
2023-04-12T22:00:55.782Z,7.72
2023-04-12T22:03:58.244Z,7.80
2023-04-12T22:07:03.971Z,7.82
2023-04-12T22:10:09.262Z,7.28
2023-04-12T22:13:11.584Z,8.20
2023-04-12T22:16:14.103Z,8.40
2023-04-12T22:19:17.226Z,8.43
2023-04-12T22:22:19.507Z,8.40
2023-04-12T22:25:23.210Z,8.80
2023-04-12T22:28:25.537Z,8.23
2023-04-12T22:31:27.843Z,8.65
2023-04-12T22:34:30.127Z,8.30
2023-04-12T22:37:42.003Z,8.65
2023-04-12T22:40:46.295Z,8.30
2023-04-12T22:43:49.895Z,8.77
2023-04-12T22:46:54.727Z,9.55
2023-04-12T22:50:01.335Z,8.50
2023-04-12T22:53:04.627Z,8.95
2023-04-12T22:56:11.363Z,7.90
2023-04-12T22:59:15.028Z,8.50
2023-04-12T23:02:17.805Z,8.27
2023-04-12T23:05:20.331Z,7.88
2023-04-12T23:08:23.174Z,8.65
2023-04-12T23:11:27.896Z,9.05
2023-04-12T23:14:30.740Z,8.40
2023-04-12T23:17:33.925Z,8.27
2023-04-12T23:20:37.217Z,8.32
2023-04-12T23:23:39.568Z,8.73
2023-04-12T23:26:42.333Z,8.40
2023-04-12T23:29:44.605Z,8.90
2023-04-12T23:32:47.234Z,8.32
2023-04-12T23:35:52.815Z,8.95
2023-04-12T23:38:55.654Z,9.35
2023-04-12T23:41:57.972Z,8.50
2023-04-12T23:45:00.323Z,9.07
2023-04-12T23:48:02.731Z,8.75
2023-04-12T23:51:05.284Z,8.88
2023-04-12T23:54:07.676Z,8.40
2023-04-12T23:57:10.083Z,10.23
